»·PEaware :: N3539W KRNM-KONT

N3539W :: KRNM-KONT

FLIGHT INFORMATION

Flight Status: Arrived
Operator: Privately registered:
United States
More flights under this callsign
Pilot: Joerg P. (23850)
Aircraft: PIPER PA-32 SARATOGA
(PA32)
More flights by this aircraft type
Origin: KRNM Ramona
United States
Destination: KONT Ontario Intl
United States
More flights between these airports :: More routes between these airports
Route: ROBNN V208 OCN V23 DANAH V363 POXKU V8 PDZ
File this flight plan on PilotEdge
Remarks: TEC SANP19
Altitude:
(Current/Filed)
6,000ft
Speed:
(Current/Filed)
135kts
Departed: 13-Aug-22 11:12 AM
Arrived: 13-Aug-22 12:02 PM
Distance/Time
Traveled:
70nm/0:50
Distance/Time
To Go:
Arrived

Flight Plot

Page will automatically refresh every two minutes.


Map Options




Map Legend


Flown Route
Filed Route
Departure Airport
Arrival Airport
Navaid (VOR, NDB)
Fix

Horizontal Profiles

Position Reports

Time Latitude Longitude Heading Altitude Ground
Speed
13-Aug-22 10:56 33.041079 -116.917014 178 1390ft 0kts
13-Aug-22 10:57 33.041079 -116.917014 178 1390ft 0kts
13-Aug-22 10:58 33.041079 -116.917014 178 1390ft 0kts
13-Aug-22 10:59 33.041079 -116.917014 178 1390ft 0kts
13-Aug-22 11:00 33.041079 -116.917014 178 1390ft 0kts
13-Aug-22 11:01 33.041079 -116.917014 178 1390ft 0kts
13-Aug-22 11:02 33.041079 -116.917014 178 1390ft 0kts
13-Aug-22 11:03 33.041079 -116.917014 178 1390ft 0kts
13-Aug-22 11:04 33.041079 -116.917014 178 1390ft 0kts
13-Aug-22 11:05 33.041079 -116.917014 178 1390ft 0kts
13-Aug-22 11:06 33.041079 -116.917014 178 1390ft 0kts
13-Aug-22 11:07 33.041079 -116.917014 178 1390ft 0kts
13-Aug-22 11:08 33.041079 -116.917014 178 1390ft 0kts
13-Aug-22 11:09 33.040194 -116.917356 139 1388ft 20kts
13-Aug-22 11:10 33.038920 -116.908905 99 1398ft 31kts
13-Aug-22 11:11 33.038294 -116.907283 192 1398ft 10kts
13-Aug-22 11:12 33.041792 -116.932942 281 1942ft 99kts
13-Aug-22 11:13 33.047460 -116.966546 281 2924ft 99kts
13-Aug-22 11:14 33.050944 -116.999393 278 3803ft 101kts
13-Aug-22 11:14 33.054984 -117.026830 278 4589ft 101kts
13-Aug-22 11:16 33.076063 -117.055185 323 5577ft 103kts
13-Aug-22 11:17 33.106588 -117.066387 344 5945ft 128kts
13-Aug-22 11:18 33.143398 -117.074928 347 5947ft 139kts
13-Aug-22 11:18 33.174213 -117.085770 349 5964ft 139kts
13-Aug-22 11:19 33.202953 -117.109762 287 5886ft 138kts
13-Aug-22 11:21 33.208361 -117.162748 279 5946ft 138kts
13-Aug-22 11:22 33.214508 -117.208109 280 5979ft 138kts
13-Aug-22 11:23 33.220599 -117.253569 278 5995ft 139kts
13-Aug-22 11:23 33.225336 -117.292099 275 5960ft 140kts
13-Aug-22 11:24 33.230615 -117.338266 275 5965ft 140kts
13-Aug-22 11:25 33.237232 -117.384025 278 5965ft 139kts
13-Aug-22 11:27 33.251146 -117.433031 313 5992ft 139kts
13-Aug-22 11:27 33.274244 -117.460092 324 5976ft 140kts
13-Aug-22 11:28 33.304951 -117.488662 322 5989ft 139kts
13-Aug-22 11:29 33.333144 -117.520703 318 5991ft 139kts
13-Aug-22 11:30 33.360493 -117.553635 313 6000ft 139kts
13-Aug-22 11:31 33.388984 -117.585228 317 6002ft 140kts
13-Aug-22 11:32 33.418166 -117.616057 313 6012ft 139kts
13-Aug-22 11:33 33.446859 -117.647276 317 6023ft 139kts
13-Aug-22 11:34 33.475153 -117.679271 316 6029ft 139kts
13-Aug-22 11:35 33.508258 -117.700342 348 6010ft 140kts
13-Aug-22 11:36 33.546339 -117.709574 345 6028ft 139kts
13-Aug-22 11:37 33.584661 -117.716869 352 6022ft 140kts
13-Aug-22 11:38 33.623197 -117.722813 348 6028ft 140kts
13-Aug-22 11:39 33.662318 -117.728206 352 5909ft 144kts
13-Aug-22 11:40 33.699598 -117.741854 339 5989ft 135kts
13-Aug-22 11:41 33.735514 -117.757765 342 6012ft 138kts
13-Aug-22 11:42 33.771570 -117.773446 344 6088ft 137kts
13-Aug-22 11:43 33.809220 -117.785053 355 5988ft 142kts
13-Aug-22 11:44 33.848864 -117.784101 14 5914ft 141kts
13-Aug-22 11:45 33.864312 -117.744016 79 5891ft 140kts
13-Aug-22 11:46 33.870067 -117.698028 76 5917ft 140kts
13-Aug-22 11:47 33.882608 -117.653797 68 5936ft 140kts
13-Aug-22 11:48 33.897344 -117.610299 72 5908ft 141kts
13-Aug-22 11:49 33.907488 -117.565647 68 5995ft 137kts
13-Aug-22 11:50 33.929965 -117.527485 45 5606ft 150kts
13-Aug-22 11:51 33.960060 -117.489835 44 4921ft 152kts
13-Aug-22 11:52 33.989589 -117.452649 58 4294ft 152kts
13-Aug-22 11:53 34.005185 -117.411529 64 4011ft 143kts
13-Aug-22 11:54 34.022029 -117.372930 27 3997ft 138kts
13-Aug-22 11:55 34.050409 -117.396148 292 3948ft 138kts
13-Aug-22 11:56 34.055200 -117.435066 279 3481ft 135kts
13-Aug-22 11:57 34.056984 -117.467116 267 2837ft 110kts
13-Aug-22 11:58 34.055183 -117.493991 263 2325ft 94kts
13-Aug-22 11:59 34.054759 -117.522496 267 1921ft 82kts
13-Aug-22 12:00 34.054954 -117.566755 270 1263ft 96kts
13-Aug-22 12:01 34.054566 -117.589638 204 921ft 20kts
13-Aug-22 12:02 34.054049 -117.589716 183 920ft 0kts
13-Aug-22 12:03 34.053824 -117.598691 266 920ft 40kts
13-Aug-22 12:04 34.053429 -117.610759 142 924ft 22kts
13-Aug-22 12:05 34.053225 -117.610586 167 923ft 0kts

Navigation Log

Ident Type
Flight plan parsing failed, navigation log unavailable